Time,TemperatureF,DewpointF,PressureIn,WindDirection,WindDirectionDegrees,WindSpeedMPH,WindSpeedGustMPH,Humidity,HourlyPrecipIn,Conditions,Clouds,dailyrainin,SoftwareType,DateUTC
2013-07-16 00:08:00,84.1,65.1,29.93,SE,135,2.5,5.1,53,0.00,,,0.00,WUHU216HW,2013-07-16 07:08:00,
2013-07-16 00:18:00,83.5,65.1,29.93,SE,135,5.6,5.6,54,0.00,,,0.00,WUHU216HW,2013-07-16 07:18:00,
2013-07-16 00:28:00,83.0,65.6,29.93,NE,45,5.6,5.8,56,0.00,,,0.00,WUHU216HW,2013-07-16 07:28:00,
2013-07-16 00:38:00,81.4,65.6,29.93,NE,45,8.9,10.3,59,0.00,,,0.00,WUHU216HW,2013-07-16 07:38:00,
2013-07-16 00:48:00,79.9,66.3,29.94,SE,135,10.5,11.4,63,0.00,,,0.00,WUHU216HW,2013-07-16 07:48:00,
2013-07-16 00:58:00,79.0,66.3,29.94,ESE,113,10.1,10.3,65,0.01,,,0.01,WUHU216HW,2013-07-16 07:58:00,
2013-07-16 01:08:00,78.8,66.1,29.94,East,90,6.9,10.5,65,0.01,,,0.01,WUHU216HW,2013-07-16 08:08:00,
2013-07-16 01:18:00,79.0,65.3,29.95,East,90,6.3,11.0,63,0.01,,,0.01,WUHU216HW,2013-07-16 08:18:00,
2013-07-16 01:28:00,79.0,64.9,29.95,ESE,113,6.5,12.3,62,0.01,,,0.01,WUHU216HW,2013-07-16 08:28:00,
2013-07-16 01:38:00,78.8,64.8,29.94,East,90,13.6,13.6,62,0.01,,,0.01,WUHU216HW,2013-07-16 08:38:00,
2013-07-16 01:48:00,78.7,65.0,29.94,NNE,23,9.2,12.1,63,0.01,,,0.01,WUHU216HW,2013-07-16 08:48:00,
2013-07-16 01:59:00,78.5,64.9,29.94,NNW,338,8.1,13.6,63,0.00,,,0.01,WUHU216HW,2013-07-16 08:59:00,
2013-07-16 02:09:00,78.1,65.0,29.94,ESE,113,5.6,11.6,64,0.00,,,0.01,WUHU216HW,2013-07-16 09:09:00,
2013-07-16 02:19:00,77.9,65.3,29.95,ENE,68,12.1,12.1,65,0.00,,,0.01,WUHU216HW,2013-07-16 09:19:00,
2013-07-16 02:29:00,77.8,65.1,29.95,SE,135,4.7,11.2,65,0.00,,,0.01,WUHU216HW,2013-07-16 09:29:00,
2013-07-16 02:39:00,77.8,65.5,29.95,ESE,113,10.5,14.1,66,0.00,,,0.01,WUHU216HW,2013-07-16 09:39:00,
2013-07-16 02:49:00,77.8,65.1,29.95,NE,45,7.8,9.2,65,0.00,,,0.01,WUHU216HW,2013-07-16 09:49:00,
2013-07-16 02:59:00,77.9,64.8,29.94,ENE,68,4.9,9.8,64,0.00,,,0.01,WUHU216HW,2013-07-16 09:59:00,
2013-07-16 03:09:00,78.1,64.5,29.93,East,90,5.8,7.6,63,0.00,,,0.01,WUHU216HW,2013-07-16 10:09:00,
2013-07-16 03:19:00,78.5,64.5,29.93,East,90,5.4,11.0,62,0.00,,,0.01,WUHU216HW,2013-07-16 10:19:00,
2013-07-16 03:29:00,78.5,64.5,29.93,East,90,6.5,7.2,62,0.00,,,0.01,WUHU216HW,2013-07-16 10:29:00,
2013-07-16 03:39:00,78.5,64.5,29.94,ESE,113,2.5,6.7,62,0.00,,,0.01,WUHU216HW,2013-07-16 10:39:00,
2013-07-16 03:49:00,78.5,64.0,29.94,SE,135,6.9,6.9,61,0.00,,,0.01,WUHU216HW,2013-07-16 10:49:00,
2013-07-16 03:59:00,78.7,64.6,29.94,SE,135,3.1,6.0,62,0.00,,,0.01,WUHU216HW,2013-07-16 10:59:00,
2013-07-16 04:10:00,78.5,64.5,29.95,ESE,113,2.0,4.9,62,0.00,,,0.01,WUHU216HW,2013-07-16 11:10:00,
2013-07-16 04:20:00,78.7,64.2,29.95,ESE,113,3.8,3.8,61,0.00,,,0.01,WUHU216HW,2013-07-16 11:20:00,
2013-07-16 04:30:00,78.7,64.2,29.95,ESE,113,2.2,4.9,61,0.00,,,0.01,WUHU216HW,2013-07-16 11:30:00,
2013-07-16 04:40:00,78.7,64.2,29.95,NE,45,2.2,3.6,61,0.00,,,0.01,WUHU216HW,2013-07-16 11:40:00,
2013-07-16 04:50:00,78.5,64.0,29.95,ESE,113,1.8,4.7,61,0.00,,,0.01,WUHU216HW,2013-07-16 11:50:00,
2013-07-16 05:00:00,78.7,64.2,29.96,East,90,2.5,6.0,61,0.00,,,0.01,WUHU216HW,2013-07-16 12:00:00,
2013-07-16 05:10:00,78.7,63.7,29.96,ENE,68,4.0,5.4,60,0.00,,,0.01,WUHU216HW,2013-07-16 12:10:00,
2013-07-16 05:20:00,78.5,64.0,29.96,ENE,68,2.5,6.9,61,0.00,,,0.01,WUHU216HW,2013-07-16 12:20:00,
2013-07-16 05:30:00,78.3,64.3,29.96,SE,135,5.6,8.1,62,0.00,,,0.01,WUHU216HW,2013-07-16 12:30:00,
2013-07-16 05:40:00,78.1,63.6,29.96,ENE,68,2.2,6.3,61,0.00,,,0.01,WUHU216HW,2013-07-16 12:40:00,
2013-07-16 05:50:00,78.1,63.6,29.96,NE,45,2.5,4.0,61,0.00,,,0.01,WUHU216HW,2013-07-16 12:50:00,
2013-07-16 06:00:00,77.9,63.9,29.96,ESE,113,0.4,4.9,62,0.00,,,0.01,WUHU216HW,2013-07-16 13:00:00,
2013-07-16 06:10:00,77.8,63.7,29.97,East,90,1.3,4.0,62,0.00,,,0.01,WUHU216HW,2013-07-16 13:10:00,
2013-07-16 06:20:00,77.8,63.7,29.96,East,90,0.4,4.0,62,0.00,,,0.01,WUHU216HW,2013-07-16 13:20:00,
2013-07-16 06:30:00,77.8,63.7,29.97,East,90,3.1,3.1,62,0.00,,,0.01,WUHU216HW,2013-07-16 13:30:00,
2013-07-16 06:40:00,77.8,63.7,29.98,NNE,23,4.0,4.0,62,0.00,,,0.01,WUHU216HW,2013-07-16 13:40:00,
2013-07-16 06:51:00,77.8,63.3,29.98,NE,45,3.4,3.4,61,0.00,,,0.01,WUHU216HW,2013-07-16 13:51:00,
2013-07-16 07:01:00,77.6,63.6,29.98,NE,45,1.8,5.8,62,0.00,,,0.01,WUHU216HW,2013-07-16 14:01:00,
2013-07-16 07:11:00,77.8,63.7,29.98,SE,135,1.6,6.3,62,0.00,,,0.01,WUHU216HW,2013-07-16 14:11:00,
2013-07-16 07:21:00,77.9,63.5,29.99,ENE,68,3.4,4.0,61,0.00,,,0.01,WUHU216HW,2013-07-16 14:21:00,
2013-07-16 07:31:00,78.1,63.6,29.99,East,90,3.4,3.4,61,0.00,,,0.01,WUHU216HW,2013-07-16 14:31:00,
2013-07-16 07:41:00,78.3,63.4,30.00,SE,135,2.5,3.4,60,0.00,,,0.01,WUHU216HW,2013-07-16 14:41:00,
2013-07-16 07:51:00,78.8,64.4,30.00,SE,135,0.7,2.2,61,0.00,,,0.01,WUHU216HW,2013-07-16 14:51:00,
2013-07-16 08:01:00,79.0,64.5,30.00,SE,135,1.1,1.1,61,0.00,,,0.01,WUHU216HW,2013-07-16 15:01:00,
2013-07-16 08:11:00,79.6,64.5,30.00,ESE,113,1.3,1.8,60,0.00,,,0.01,WUHU216HW,2013-07-16 15:11:00,
2013-07-16 08:21:00,79.9,64.4,30.00,North,0,0.9,2.2,59,0.00,,,0.01,WUHU216HW,2013-07-16 15:21:00,
2013-07-16 08:31:00,80.3,64.2,30.00,ESE,113,1.3,1.8,58,0.00,,,0.01,WUHU216HW,2013-07-16 15:31:00,
2013-07-16 08:41:00,80.6,64.4,30.00,NW,315,0.7,2.5,58,0.00,,,0.01,WUHU216HW,2013-07-16 15:41:00,
2013-07-16 08:51:00,81.4,64.6,30.00,NNE,23,1.1,2.5,57,0.00,,,0.01,WUHU216HW,2013-07-16 15:51:00,
2013-07-16 09:01:00,81.7,64.5,30.00,ESE,113,1.8,3.4,56,0.00,,,0.01,WUHU216HW,2013-07-16 16:01:00,
2013-07-16 09:11:00,82.4,64.5,30.00,ENE,68,0.9,4.0,55,0.00,,,0.01,WUHU216HW,2013-07-16 16:11:00,
2013-07-16 09:21:00,83.2,64.7,30.00,SE,135,3.4,3.4,54,0.00,,,0.01,WUHU216HW,2013-07-16 16:21:00,
2013-07-16 09:31:00,84.8,65.3,30.00,ESE,113,3.4,4.0,52,0.00,,,0.01,WUHU216HW,2013-07-16 16:31:00,
2013-07-16 09:41:00,85.7,65.5,30.00,ENE,68,2.5,4.5,51,0.00,,,0.01,WUHU216HW,2013-07-16 16:41:00,
2013-07-16 09:51:00,85.9,63.9,30.00,ENE,68,2.5,2.9,48,0.00,,,0.01,WUHU216HW,2013-07-16 16:51:00,
2013-07-16 10:02:00,86.0,64.7,30.00,North,0,0.4,4.5,49,0.00,,,0.01,WUHU216HW,2013-07-16 17:02:00,
2013-07-16 10:12:00,86.6,65.2,30.00,SE,135,0.7,3.6,49,0.00,,,0.01,WUHU216HW,2013-07-16 17:12:00,
2013-07-16 10:22:00,87.5,66.0,30.01,SSW,203,1.1,2.9,49,0.00,,,0.01,WUHU216HW,2013-07-16 17:22:00,
2013-07-16 10:32:00,88.6,66.3,30.00,SE,135,4.3,4.3,48,0.00,,,0.01,WUHU216HW,2013-07-16 17:32:00,
2013-07-16 10:42:00,90.0,66.3,30.00,SSW,203,1.6,3.1,46,0.00,,,0.01,WUHU216HW,2013-07-16 17:42:00,
2013-07-16 10:52:00,90.5,64.2,30.00,ENE,68,1.8,4.3,42,0.00,,,0.01,WUHU216HW,2013-07-16 17:52:00,
2013-07-16 11:02:00,89.6,64.7,30.00,SE,135,1.8,2.9,44,0.00,,,0.01,WUHU216HW,2013-07-16 18:02:00,
2013-07-16 11:12:00,90.0,63.7,30.00,East,90,2.7,4.9,42,0.00,,,0.01,WUHU216HW,2013-07-16 18:12:00,
2013-07-16 11:22:00,89.6,64.1,30.00,NE,45,0.9,3.4,43,0.00,,,0.01,WUHU216HW,2013-07-16 18:22:00,
2013-07-16 11:32:00,89.1,64.9,30.00,NNW,338,4.7,5.4,45,0.00,,,0.01,WUHU216HW,2013-07-16 18:32:00,
2013-07-16 11:42:00,89.1,64.9,30.00,SE,135,3.4,4.9,45,0.00,,,0.01,WUHU216HW,2013-07-16 18:42:00,
2013-07-16 11:52:00,89.6,65.3,29.99,NW,315,1.6,3.1,45,0.00,,,0.01,WUHU216HW,2013-07-16 18:52:00,
2013-07-16 12:02:00,89.8,65.5,29.99,ENE,68,0.9,4.3,45,0.00,,,0.01,WUHU216HW,2013-07-16 19:02:00,
2013-07-16 12:12:00,89.8,65.5,29.99,SE,135,1.1,5.8,45,0.00,,,0.01,WUHU216HW,2013-07-16 19:12:00,
2013-07-16 12:22:00,89.3,65.1,29.99,NE,45,1.1,4.0,45,0.00,,,0.01,WUHU216HW,2013-07-16 19:22:00,
2013-07-16 12:32:00,90.0,66.3,29.99,ESE,113,2.5,2.5,46,0.00,,,0.01,WUHU216HW,2013-07-16 19:32:00,
2013-07-16 12:42:00,90.7,65.7,29.98,NW,315,1.1,4.7,44,0.00,,,0.01,WUHU216HW,2013-07-16 19:42:00,
2013-07-16 12:53:00,90.4,64.7,29.98,ESE,113,1.6,5.8,43,0.00,,,0.01,WUHU216HW,2013-07-16 19:53:00,
2013-07-16 13:03:00,89.8,64.9,29.98,North,0,1.1,4.3,44,0.00,,,0.01,WUHU216HW,2013-07-16 20:03:00,
2013-07-16 13:13:00,88.9,66.0,29.98,ENE,68,9.8,9.8,47,0.00,,,0.01,WUHU216HW,2013-07-16 20:13:00,
2013-07-16 13:23:00,85.9,67.8,29.98,ENE,68,9.2,12.3,55,0.00,,,0.01,WUHU216HW,2013-07-16 20:23:00,
2013-07-16 13:33:00,85.1,66.6,29.98,East,90,4.7,7.6,54,0.00,,,0.01,WUHU216HW,2013-07-16 20:33:00,
2013-07-16 13:43:00,85.7,66.1,29.99,NW,315,3.4,7.6,52,0.00,,,0.01,WUHU216HW,2013-07-16 20:43:00,
2013-07-16 13:53:00,84.4,67.1,29.98,ENE,68,4.0,9.8,56,0.00,,,0.01,WUHU216HW,2013-07-16 20:53:00,
2013-07-16 14:03:00,83.9,66.0,29.98,East,90,6.7,9.2,55,0.00,,,0.01,WUHU216HW,2013-07-16 21:03:00,
2013-07-16 14:13:00,84.1,65.1,29.98,ESE,113,6.3,8.5,53,0.00,,,0.01,WUHU216HW,2013-07-16 21:13:00,
2013-07-16 14:23:00,84.2,65.3,29.98,ENE,68,9.4,10.5,53,0.00,,,0.01,WUHU216HW,2013-07-16 21:23:00,
2013-07-16 14:33:00,84.2,65.8,29.97,East,90,6.7,7.6,54,0.00,,,0.01,WUHU216HW,2013-07-16 21:33:00,
2013-07-16 14:43:00,84.2,65.8,29.97,ENE,68,6.7,6.7,54,0.00,,,0.01,WUHU216HW,2013-07-16 21:43:00,
2013-07-16 14:53:00,84.6,65.6,29.97,SSE,158,5.8,7.6,53,0.00,,,0.01,WUHU216HW,2013-07-16 21:53:00,
2013-07-16 15:03:00,84.6,66.2,29.97,SE,135,3.8,7.4,54,0.00,,,0.01,WUHU216HW,2013-07-16 22:03:00,
2013-07-16 15:13:00,84.6,66.2,29.97,ESE,113,7.2,7.2,54,0.00,,,0.01,WUHU216HW,2013-07-16 22:13:00,
2013-07-16 15:23:00,84.6,66.2,29.97,East,90,4.9,5.8,54,0.00,,,0.01,WUHU216HW,2013-07-16 22:23:00,
2013-07-16 15:33:00,84.6,67.1,29.97,ESE,113,5.6,9.8,56,0.00,,,0.01,WUHU216HW,2013-07-16 22:33:00,
2013-07-16 15:43:00,84.8,67.3,29.97,East,90,5.4,8.1,56,0.00,,,0.01,WUHU216HW,2013-07-16 22:43:00,
2013-07-16 15:53:00,84.8,66.3,29.97,ESE,113,5.4,8.7,54,0.00,,,0.01,WUHU216HW,2013-07-16 22:53:00,
2013-07-16 16:04:00,85.1,66.6,29.98,East,90,4.7,6.3,54,0.00,,,0.01,WUHU216HW,2013-07-16 23:04:00,
2013-07-16 16:14:00,85.0,66.4,29.98,ENE,68,2.2,10.1,54,0.00,,,0.01,WUHU216HW,2013-07-16 23:14:00,
2013-07-16 16:24:00,85.3,66.8,29.98,SE,135,6.9,6.9,54,0.00,,,0.01,WUHU216HW,2013-07-16 23:24:00,
2013-07-16 16:34:00,85.9,66.8,29.98,ESE,113,5.8,6.3,53,0.00,,,0.01,WUHU216HW,2013-07-16 23:34:00,
2013-07-16 16:44:00,85.3,66.2,29.98,ESE,113,6.5,9.2,53,0.00,,,0.01,WUHU216HW,2013-07-16 23:44:00,
2013-07-16 16:54:00,85.3,66.8,29.98,ENE,68,4.9,6.3,54,0.00,,,0.01,WUHU216HW,2013-07-16 23:54:00,
2013-07-16 17:04:00,85.3,66.8,29.98,ESE,113,4.0,6.0,54,0.00,,,0.01,WUHU216HW,2013-07-17 00:04:00,
2013-07-16 17:14:00,85.7,67.2,29.98,SSE,158,1.6,7.4,54,0.00,,,0.01,WUHU216HW,2013-07-17 00:14:00,
2013-07-16 17:24:00,85.7,67.2,29.98,ENE,68,4.7,4.7,54,0.00,,,0.01,WUHU216HW,2013-07-17 00:24:00,
2013-07-16 17:34:00,84.6,65.6,29.98,East,90,6.0,6.9,53,0.00,,,0.01,WUHU216HW,2013-07-17 00:34:00,
2013-07-16 17:44:00,84.1,65.6,29.98,NE,45,4.7,7.4,54,0.00,,,0.01,WUHU216HW,2013-07-17 00:44:00,
2013-07-16 17:54:00,83.9,64.9,29.97,SE,135,4.3,10.1,53,0.00,,,0.01,WUHU216HW,2013-07-17 00:54:00,
2013-07-16 18:04:00,83.3,64.4,29.97,NE,45,5.1,8.3,53,0.00,,,0.01,WUHU216HW,2013-07-17 01:04:00,
2013-07-16 18:14:00,83.0,64.5,29.97,ENE,68,7.4,8.9,54,0.00,,,0.01,WUHU216HW,2013-07-17 01:14:00,
2013-07-16 18:24:00,82.6,64.7,29.97,East,90,4.5,8.7,55,0.00,,,0.01,WUHU216HW,2013-07-17 01:24:00,
2013-07-16 18:34:00,82.4,64.5,29.97,East,90,3.4,10.1,55,0.00,,,0.01,WUHU216HW,2013-07-17 01:34:00,
2013-07-16 18:44:00,82.4,64.5,29.97,NNE,23,9.2,10.3,55,0.00,,,0.01,WUHU216HW,2013-07-17 01:44:00,
2013-07-16 18:54:00,82.4,64.5,29.98,ESE,113,6.5,7.4,55,0.00,,,0.01,WUHU216HW,2013-07-17 01:54:00,
2013-07-16 19:05:00,82.3,63.8,29.98,ENE,68,8.3,10.3,54,0.00,,,0.01,WUHU216HW,2013-07-17 02:05:00,
2013-07-16 19:15:00,82.3,63.8,29.98,ESE,113,6.3,9.8,54,0.00,,,0.01,WUHU216HW,2013-07-17 02:15:00,
2013-07-16 19:25:00,82.4,63.5,29.98,SE,135,4.7,7.6,53,0.00,,,0.01,WUHU216HW,2013-07-17 02:25:00,
2013-07-16 19:35:00,82.4,63.0,29.99,East,90,2.9,7.6,52,0.00,,,0.01,WUHU216HW,2013-07-17 02:35:00,
2013-07-16 19:45:00,82.6,63.2,30.00,SW,225,1.8,5.1,52,0.00,,,0.01,WUHU216HW,2013-07-17 02:45:00,
2013-07-16 19:55:00,82.4,64.0,29.99,SW,225,4.7,4.7,54,0.00,,,0.01,WUHU216HW,2013-07-17 02:55:00,
2013-07-16 20:05:00,82.1,64.2,30.00,SSW,203,2.0,6.3,55,0.00,,,0.01,WUHU216HW,2013-07-17 03:05:00,
2013-07-16 20:15:00,81.7,63.4,30.01,SSE,158,4.5,5.6,54,0.00,,,0.01,WUHU216HW,2013-07-17 03:15:00,
2013-07-16 20:25:00,81.5,63.2,30.01,SSW,203,3.6,6.5,54,0.00,,,0.01,WUHU216HW,2013-07-17 03:25:00,
2013-07-16 20:35:00,81.4,63.5,30.02,SE,135,3.6,5.8,55,0.00,,,0.01,WUHU216HW,2013-07-17 03:35:00,
2013-07-16 20:45:00,81.0,63.7,30.03,South,180,3.6,4.9,56,0.00,,,0.01,WUHU216HW,2013-07-17 03:45:00,
2013-07-16 20:55:00,81.0,64.3,30.03,SSE,158,2.5,4.7,57,0.00,,,0.01,WUHU216HW,2013-07-17 03:55:00,
2013-07-16 21:05:00,81.0,64.8,30.03,SSE,158,3.6,6.9,58,0.00,,,0.01,WUHU216HW,2013-07-17 04:05:00,
2013-07-16 21:15:00,81.0,64.8,30.04,South,180,1.1,3.4,58,0.00,,,0.01,WUHU216HW,2013-07-17 04:15:00,
2013-07-16 21:25:00,80.8,65.2,30.05,WSW,248,2.7,3.4,59,0.00,,,0.01,WUHU216HW,2013-07-17 04:25:00,
2013-07-16 21:35:00,80.8,65.2,30.05,SW,225,1.8,2.7,59,0.00,,,0.01,WUHU216HW,2013-07-17 04:35:00,
2013-07-16 21:46:00,80.6,65.0,30.05,WNW,293,0.4,2.2,59,0.00,,,0.01,WUHU216HW,2013-07-17 04:46:00,
2013-07-16 21:56:00,80.6,65.0,30.06,WNW,293,1.1,1.6,59,0.00,,,0.01,WUHU216HW,2013-07-17 04:56:00,
2013-07-16 22:06:00,80.6,65.5,30.05,West,270,1.6,2.0,60,0.00,,,0.01,WUHU216HW,2013-07-17 05:06:00,
2013-07-16 22:16:00,80.6,65.5,30.05,WSW,248,0.9,1.8,60,0.00,,,0.01,WUHU216HW,2013-07-17 05:16:00,
2013-07-16 22:26:00,80.5,65.8,30.06,West,270,1.8,3.4,61,0.00,,,0.01,WUHU216HW,2013-07-17 05:26:00,
2013-07-16 22:36:00,80.3,65.6,30.06,West,270,1.3,1.3,61,0.00,,,0.01,WUHU216HW,2013-07-17 05:36:00,
2013-07-16 22:46:00,80.3,65.6,30.05,WSW,248,0.4,2.0,61,0.00,,,0.01,WUHU216HW,2013-07-17 05:46:00,
2013-07-16 22:56:00,80.3,66.1,30.06,West,270,2.2,2.2,62,0.00,,,0.01,WUHU216HW,2013-07-17 05:56:00,
2013-07-16 23:06:00,80.1,65.9,30.06,WSW,248,0.0,2.5,62,0.00,,,0.01,WUHU216HW,2013-07-17 06:06:00,
2013-07-16 23:16:00,79.9,65.8,30.07,West,270,0.4,0.9,62,0.00,,,0.01,WUHU216HW,2013-07-17 06:16:00,
2013-07-16 23:26:00,79.9,65.8,30.06,WSW,248,0.0,1.8,62,0.00,,,0.01,WUHU216HW,2013-07-17 06:26:00,
2013-07-16 23:36:00,79.9,65.8,30.06,SW,225,0.0,1.3,62,0.00,,,0.01,WUHU216HW,2013-07-17 06:36:00,
2013-07-16 23:46:00,79.7,65.6,30.06,SW,225,0.9,1.1,62,0.00,,,0.01,WUHU216HW,2013-07-17 06:46:00,
2013-07-16 23:56:00,79.7,65.6,30.06,West,270,0.2,1.6,62,0.00,,,0.01,WUHU216HW,2013-07-17 06:56:00,